createdAt,value
2017-06-09T00:00:40.527Z,0
2017-06-09T00:01:21.078Z,0
2017-06-09T00:02:01.606Z,0
2017-06-09T00:02:42.146Z,0
2017-06-09T00:03:22.684Z,0
2017-06-09T00:04:03.236Z,0
2017-06-09T00:04:43.776Z,0
2017-06-09T00:05:24.317Z,0
2017-06-09T00:06:04.859Z,0
2017-06-09T00:06:45.407Z,0
2017-06-09T00:07:25.934Z,0
2017-06-09T00:08:06.471Z,0
2017-06-09T00:08:46.997Z,0
2017-06-09T00:09:27.540Z,0
2017-06-09T00:10:08.101Z,0
2017-06-09T00:10:48.647Z,0
2017-06-09T00:11:29.190Z,0
2017-06-09T00:12:09.739Z,0
2017-06-09T00:12:50.284Z,0
2017-06-09T00:13:30.821Z,0
2017-06-09T00:14:11.365Z,0
2017-06-09T00:14:51.914Z,0
2017-06-09T00:15:32.463Z,0
2017-06-09T00:16:12.987Z,0
2017-06-09T00:16:53.550Z,0
2017-06-09T00:17:34.068Z,0
2017-06-09T00:18:14.608Z,0
2017-06-09T00:18:55.149Z,0
2017-06-09T00:19:35.702Z,0
2017-06-09T00:20:16.250Z,0
2017-06-09T00:20:56.794Z,0
2017-06-09T00:21:37.341Z,0
2017-06-09T00:22:17.876Z,0
2017-06-09T00:22:58.422Z,0
2017-06-09T00:23:38.967Z,0
2017-06-09T00:24:19.515Z,0
2017-06-09T00:25:00.050Z,0
2017-06-09T00:25:40.592Z,0
2017-06-09T00:26:21.127Z,0
2017-06-09T00:27:01.667Z,0
2017-06-09T00:27:42.207Z,0
2017-06-09T00:28:22.757Z,0
2017-06-09T00:29:03.313Z,0
2017-06-09T00:29:43.851Z,0
2017-06-09T00:30:24.401Z,0
2017-06-09T00:31:04.957Z,0
2017-06-09T00:31:45.492Z,0
2017-06-09T00:32:26.030Z,0
2017-06-09T00:33:06.576Z,0
2017-06-09T00:33:47.108Z,0
2017-06-09T00:34:27.663Z,0
2017-06-09T00:35:08.237Z,0
2017-06-09T00:35:48.772Z,0
2017-06-09T00:36:29.310Z,0
2017-06-09T00:37:09.852Z,0
2017-06-09T00:37:50.400Z,0
2017-06-09T00:38:30.947Z,0
2017-06-09T00:39:11.484Z,0
2017-06-09T00:39:52.025Z,0
2017-06-09T00:40:32.576Z,0
2017-06-09T00:41:13.123Z,0
2017-06-09T00:41:53.673Z,0
2017-06-09T00:42:34.216Z,0
2017-06-09T00:43:14.757Z,0
2017-06-09T00:43:55.307Z,0
2017-06-09T00:44:35.853Z,0
2017-06-09T00:45:16.412Z,0
2017-06-09T00:45:56.951Z,0
2017-06-09T00:46:37.507Z,0
2017-06-09T00:47:18.051Z,0
2017-06-09T00:47:58.601Z,0
2017-06-09T00:48:39.148Z,0
2017-06-09T00:49:19.716Z,0
2017-06-09T00:50:00.232Z,0
2017-06-09T00:50:40.768Z,0
2017-06-09T00:51:21.296Z,0
2017-06-09T00:52:01.838Z,0
2017-06-09T00:52:42.385Z,0
2017-06-09T00:53:22.938Z,0
2017-06-09T00:54:03.472Z,0
2017-06-09T00:54:44.011Z,0
2017-06-09T00:55:24.590Z,0
2017-06-09T00:56:05.161Z,0
2017-06-09T00:56:45.692Z,0
2017-06-09T00:57:26.242Z,0
2017-06-09T00:58:06.788Z,0
2017-06-09T00:58:47.326Z,0
2017-06-09T00:59:27.868Z,0
2017-06-09T01:00:08.416Z,0
2017-06-09T01:00:48.967Z,0
2017-06-09T01:01:29.516Z,0
2017-06-09T01:02:10.069Z,0
2017-06-09T01:02:50.617Z,0
2017-06-09T01:03:31.158Z,0
2017-06-09T01:04:11.694Z,0
2017-06-09T01:04:52.246Z,0
2017-06-09T01:05:32.787Z,0
2017-06-09T01:06:13.337Z,0
2017-06-09T01:06:53.876Z,0
2017-06-09T01:07:34.421Z,0
2017-06-09T01:08:14.960Z,0
2017-06-09T01:08:55.511Z,0
2017-06-09T01:09:36.059Z,0
2017-06-09T01:10:16.613Z,0
2017-06-09T01:10:57.163Z,0
2017-06-09T01:11:37.719Z,0
2017-06-09T01:12:18.265Z,0
2017-06-09T01:12:58.811Z,0
2017-06-09T01:13:39.368Z,0
2017-06-09T01:14:19.916Z,0
2017-06-09T01:15:00.465Z,0
2017-06-09T01:15:41.018Z,0
2017-06-09T01:16:21.566Z,0
2017-06-09T01:17:02.114Z,0
2017-06-09T01:17:42.665Z,0
2017-06-09T01:18:23.208Z,0
2017-06-09T01:19:03.740Z,0
2017-06-09T01:19:44.290Z,0
2017-06-09T01:20:24.827Z,0
2017-06-09T01:21:05.369Z,0
2017-06-09T01:21:45.913Z,0
2017-06-09T01:22:26.452Z,0
2017-06-09T01:23:06.988Z,0
2017-06-09T01:23:47.527Z,0
2017-06-09T01:24:28.075Z,0
2017-06-09T01:25:08.622Z,0
2017-06-09T01:25:49.178Z,0
2017-06-09T01:26:29.715Z,0
2017-06-09T01:27:10.250Z,0
2017-06-09T01:27:50.841Z,0
2017-06-09T01:28:31.379Z,0
2017-06-09T01:29:11.919Z,0
2017-06-09T01:29:52.463Z,0
2017-06-09T01:30:32.993Z,0
2017-06-09T01:31:13.529Z,0
2017-06-09T01:31:54.077Z,0
2017-06-09T01:32:34.600Z,0
2017-06-09T01:33:15.141Z,0
2017-06-09T01:33:55.682Z,0
2017-06-09T01:34:36.224Z,0
2017-06-09T01:35:16.786Z,0
2017-06-09T01:35:57.336Z,0
2017-06-09T01:36:37.873Z,0
2017-06-09T01:37:18.417Z,0
2017-06-09T01:37:58.959Z,0
2017-06-09T01:38:39.503Z,0
2017-06-09T01:39:20.033Z,0
2017-06-09T01:40:00.582Z,0
2017-06-09T01:40:41.126Z,0
2017-06-09T01:41:21.666Z,0
2017-06-09T01:42:02.211Z,0
2017-06-09T01:42:42.755Z,0
2017-06-09T01:43:23.298Z,0
2017-06-09T01:44:03.839Z,0
2017-06-09T01:44:44.386Z,0
2017-06-09T01:45:24.929Z,0
2017-06-09T01:46:05.467Z,0
2017-06-09T01:46:46.012Z,0
2017-06-09T01:47:26.555Z,0
2017-06-09T01:48:07.101Z,0
2017-06-09T01:48:47.643Z,0
2017-06-09T01:49:28.183Z,0
2017-06-09T01:50:08.723Z,0
2017-06-09T01:50:49.267Z,0
2017-06-09T01:51:29.810Z,0
2017-06-09T01:52:10.361Z,0
2017-06-09T01:52:50.905Z,0
2017-06-09T01:53:31.448Z,0
2017-06-09T01:54:11.988Z,0
2017-06-09T01:54:52.526Z,0
2017-06-09T01:55:33.067Z,0
2017-06-09T01:56:13.624Z,0
2017-06-09T01:56:54.151Z,0
2017-06-09T01:57:34.693Z,0
2017-06-09T01:58:15.235Z,0
2017-06-09T01:58:55.769Z,0
2017-06-09T01:59:36.320Z,0
2017-06-09T02:00:16.862Z,0
2017-06-09T02:00:57.404Z,0
2017-06-09T02:01:38.029Z,0
2017-06-09T02:02:18.575Z,0
2017-06-09T02:02:59.117Z,0
2017-06-09T02:03:39.662Z,0
2017-06-09T02:04:20.205Z,0
2017-06-09T02:05:00.745Z,0
2017-06-09T02:05:41.292Z,0
2017-06-09T02:06:21.826Z,0
2017-06-09T02:07:02.369Z,0
2017-06-09T02:07:42.911Z,0
2017-06-09T02:08:23.438Z,0
2017-06-09T02:09:03.987Z,0
2017-06-09T02:09:44.516Z,0
2017-06-09T02:10:25.050Z,0
2017-06-09T02:11:05.587Z,0
2017-06-09T02:11:46.129Z,0
2017-06-09T02:12:26.665Z,0
2017-06-09T02:13:07.196Z,0
2017-06-09T02:13:47.747Z,0
2017-06-09T02:14:28.294Z,0
2017-06-09T02:15:08.845Z,0
2017-06-09T02:15:49.389Z,0
2017-06-09T02:16:29.931Z,0
2017-06-09T02:17:10.475Z,0
2017-06-09T02:17:51.006Z,0
2017-06-09T02:18:31.547Z,0
2017-06-09T02:19:12.089Z,0
2017-06-09T02:19:52.625Z,0
2017-06-09T02:20:33.160Z,0
2017-06-09T02:21:13.704Z,0
2017-06-09T02:21:54.251Z,0
2017-06-09T02:22:34.794Z,0
2017-06-09T02:23:15.315Z,0
2017-06-09T02:23:55.857Z,0
2017-06-09T02:24:36.393Z,0
2017-06-09T02:25:16.940Z,0
2017-06-09T02:25:57.463Z,0
2017-06-09T02:26:38.054Z,0
2017-06-09T02:27:18.532Z,0
2017-06-09T02:27:59.063Z,0
2017-06-09T02:28:39.607Z,0
2017-06-09T02:29:20.242Z,0
2017-06-09T02:30:00.724Z,0
2017-06-09T02:30:41.266Z,0
2017-06-09T02:31:21.797Z,0
2017-06-09T02:32:02.339Z,0
2017-06-09T02:32:42.897Z,0
2017-06-09T02:33:23.439Z,0
2017-06-09T02:34:03.976Z,0
2017-06-09T02:34:44.511Z,0
2017-06-09T02:35:25.023Z,0
2017-06-09T02:36:05.564Z,0
2017-06-09T02:36:46.101Z,0
2017-06-09T02:37:26.644Z,0
2017-06-09T02:38:07.184Z,0
2017-06-09T02:38:47.732Z,0
2017-06-09T02:39:28.279Z,0
2017-06-09T02:40:08.819Z,0
2017-06-09T02:40:49.364Z,0
2017-06-09T02:41:29.901Z,0
2017-06-09T02:42:10.436Z,0
2017-06-09T02:42:50.966Z,0
2017-06-09T02:43:31.510Z,0
2017-06-09T02:44:12.058Z,0
2017-06-09T02:44:52.607Z,0
2017-06-09T02:45:33.149Z,0
2017-06-09T02:46:13.692Z,0
2017-06-09T02:46:54.249Z,0
2017-06-09T02:47:34.793Z,0
2017-06-09T02:48:15.340Z,4
2017-06-09T02:48:55.886Z,4
2017-06-09T02:49:36.428Z,4
2017-06-09T02:50:16.970Z,4
2017-06-09T02:50:57.515Z,4
2017-06-09T02:51:38.046Z,4
2017-06-09T02:52:18.576Z,0
2017-06-09T02:52:59.119Z,4
2017-06-09T02:53:39.665Z,4
2017-06-09T02:54:20.208Z,4
2017-06-09T02:55:00.763Z,4
2017-06-09T02:55:41.298Z,8
2017-06-09T02:56:21.830Z,8
2017-06-09T02:57:02.373Z,4
2017-06-09T02:57:42.916Z,8
2017-06-09T02:58:23.450Z,8
2017-06-09T02:59:03.982Z,8
2017-06-09T02:59:44.526Z,8
2017-06-09T03:00:25.063Z,8
2017-06-09T03:01:05.610Z,12
2017-06-09T03:01:46.154Z,8
2017-06-09T03:02:26.675Z,12
2017-06-09T03:03:07.222Z,12
2017-06-09T03:03:47.746Z,16
2017-06-09T03:04:28.291Z,16
2017-06-09T03:05:08.831Z,16
2017-06-09T03:05:49.381Z,20
2017-06-09T03:06:29.933Z,20
2017-06-09T03:07:10.468Z,20
2017-06-09T03:07:51.002Z,24
2017-06-09T03:08:31.553Z,24
2017-06-09T03:09:12.080Z,24
2017-06-09T03:09:52.628Z,28
2017-06-09T03:10:33.163Z,28
2017-06-09T03:11:13.699Z,32
2017-06-09T03:11:54.233Z,32
2017-06-09T03:12:34.783Z,36
2017-06-09T03:13:15.330Z,36
2017-06-09T03:13:55.866Z,40
2017-06-09T03:14:36.415Z,44
2017-06-09T03:15:16.955Z,44
2017-06-09T03:15:57.489Z,44
2017-06-09T03:16:38.032Z,48
2017-06-09T03:17:18.570Z,48
2017-06-09T03:17:59.115Z,52
2017-06-09T03:18:39.661Z,52
2017-06-09T03:19:20.205Z,56
2017-06-09T03:20:00.743Z,56
2017-06-09T03:20:41.279Z,60
2017-06-09T03:21:21.823Z,60
2017-06-09T03:22:02.360Z,64
2017-06-09T03:22:42.893Z,68
2017-06-09T03:23:23.421Z,68
2017-06-09T03:24:03.965Z,72
2017-06-09T03:24:44.519Z,76
2017-06-09T03:25:25.058Z,80
2017-06-09T03:26:05.601Z,84
2017-06-09T03:26:46.148Z,88
2017-06-09T03:27:26.684Z,96
2017-06-09T03:28:07.235Z,104
2017-06-09T03:28:47.777Z,108
2017-06-09T03:29:28.318Z,116
2017-06-09T03:30:08.856Z,120
2017-06-09T03:30:49.396Z,128
2017-06-09T03:31:29.941Z,136
2017-06-09T03:32:10.483Z,148
2017-06-09T03:32:51.026Z,156
2017-06-09T03:33:31.562Z,164
2017-06-09T03:34:12.100Z,164
2017-06-09T03:34:52.642Z,172
2017-06-09T03:35:33.185Z,176
2017-06-09T03:36:13.724Z,180
2017-06-09T03:36:54.268Z,192
2017-06-09T03:37:34.802Z,200
2017-06-09T03:38:15.325Z,212
2017-06-09T03:38:55.876Z,228
2017-06-09T03:39:36.420Z,236
2017-06-09T03:40:16.937Z,252
2017-06-09T03:40:57.487Z,264
2017-06-09T03:41:38.058Z,272
2017-06-09T03:42:18.592Z,288
2017-06-09T03:42:59.141Z,304
2017-06-09T03:43:39.683Z,316
2017-06-09T03:44:20.260Z,332
2017-06-09T03:45:00.796Z,348
2017-06-09T03:45:41.389Z,364
2017-06-09T03:46:21.930Z,376
2017-06-09T03:47:02.470Z,392
2017-06-09T03:47:43.012Z,408
2017-06-09T03:48:23.548Z,428
2017-06-09T03:49:04.087Z,444
2017-06-09T03:49:44.635Z,464
2017-06-09T03:50:25.155Z,480
2017-06-09T03:51:05.687Z,496
2017-06-09T03:51:46.231Z,512
2017-06-09T03:52:26.777Z,536
2017-06-09T03:53:07.312Z,560
2017-06-09T03:53:47.852Z,592
2017-06-09T03:54:28.376Z,636
2017-06-09T03:55:08.910Z,676
2017-06-09T03:55:49.440Z,720
2017-06-09T03:56:29.977Z,768
2017-06-09T03:57:10.534Z,800
2017-06-09T03:57:51.051Z,812
2017-06-09T03:58:31.595Z,820
2017-06-09T03:59:12.136Z,824
2017-06-09T03:59:52.759Z,824
2017-06-09T04:00:33.790Z,820
2017-06-09T04:01:14.376Z,816
2017-06-09T04:01:54.911Z,808
2017-06-09T04:02:35.442Z,804
2017-06-09T04:03:15.965Z,796
2017-06-09T04:03:56.546Z,800
2017-06-09T04:04:37.091Z,808
2017-06-09T04:05:17.630Z,824
2017-06-09T04:05:58.170Z,840
2017-06-09T04:06:38.719Z,864
2017-06-09T04:07:19.266Z,888
2017-06-09T04:07:59.814Z,916
2017-06-09T04:08:40.350Z,940
2017-06-09T04:09:20.931Z,964
2017-06-09T04:10:01.474Z,984
2017-06-09T04:10:42.024Z,1012
2017-06-09T04:11:22.576Z,1032
2017-06-09T04:12:03.118Z,1032
2017-06-09T04:12:43.655Z,1036
2017-06-09T04:13:24.182Z,1048
2017-06-09T04:14:04.722Z,1060
2017-06-09T04:14:45.261Z,1056
2017-06-09T04:15:25.790Z,1036
2017-06-09T04:16:06.367Z,1004
2017-06-09T04:16:46.904Z,984
2017-06-09T04:17:27.454Z,980
2017-06-09T04:18:07.990Z,980
2017-06-09T04:18:48.599Z,996
2017-06-09T04:19:29.121Z,1012
2017-06-09T04:20:09.657Z,1024
2017-06-09T04:20:50.200Z,1024
2017-06-09T04:21:30.756Z,1016
2017-06-09T04:22:11.285Z,1008
2017-06-09T04:22:51.823Z,1000
2017-06-09T04:23:32.368Z,996
2017-06-09T04:24:12.899Z,996
2017-06-09T04:24:53.436Z,1008
2017-06-09T04:25:33.989Z,1032
2017-06-09T04:26:14.528Z,1060
2017-06-09T04:26:55.078Z,1072
2017-06-09T04:27:35.628Z,1068
2017-06-09T04:28:16.171Z,1052
2017-06-09T04:28:56.719Z,1028
2017-06-09T04:29:37.263Z,1008
2017-06-09T04:30:17.809Z,1012
2017-06-09T04:30:58.362Z,1008
2017-06-09T04:31:38.906Z,1016
2017-06-09T04:32:19.485Z,1048
2017-06-09T04:32:59.977Z,1096
2017-06-09T04:33:40.517Z,1156
2017-06-09T04:34:21.054Z,1216
2017-06-09T04:35:01.592Z,1272
2017-06-09T04:35:42.133Z,1316
2017-06-09T04:36:22.683Z,1368
2017-06-09T04:37:03.228Z,1428
2017-06-09T04:37:43.776Z,1476
2017-06-09T04:38:24.314Z,1516
2017-06-09T04:39:04.854Z,1556
2017-06-09T04:39:45.385Z,1584
2017-06-09T04:40:25.936Z,1604
2017-06-09T04:41:06.476Z,1648
2017-06-09T04:41:47.019Z,1716
2017-06-09T04:42:27.565Z,1812
2017-06-09T04:43:08.108Z,1908
2017-06-09T04:43:48.651Z,2000
2017-06-09T04:44:29.199Z,2100
2017-06-09T04:45:09.754Z,2160
2017-06-09T04:45:50.295Z,2216
2017-06-09T04:46:30.864Z,2256
2017-06-09T04:47:11.414Z,2296
2017-06-09T04:47:51.966Z,2336
2017-06-09T04:48:32.524Z,2364
2017-06-09T04:49:13.065Z,2384
2017-06-09T04:49:53.605Z,2404
2017-06-09T04:50:34.155Z,2424
2017-06-09T04:51:14.695Z,2432
2017-06-09T04:51:55.253Z,2432
2017-06-09T04:52:35.807Z,2428
2017-06-09T04:53:16.345Z,2404
2017-06-09T04:53:56.898Z,2376
2017-06-09T04:54:37.442Z,2332
2017-06-09T04:55:17.984Z,2276
2017-06-09T04:55:58.527Z,2228
2017-06-09T04:56:39.074Z,2204
2017-06-09T04:57:19.625Z,2212
2017-06-09T04:58:00.169Z,2228
2017-06-09T04:58:40.709Z,2244
2017-06-09T04:59:21.262Z,2264
2017-06-09T05:00:01.789Z,2272
2017-06-09T05:00:42.327Z,2264
2017-06-09T05:01:22.869Z,2256
2017-06-09T05:02:03.418Z,2220
2017-06-09T05:02:43.992Z,2164
2017-06-09T05:03:24.555Z,2096
2017-06-09T05:04:05.093Z,2036
2017-06-09T05:04:45.641Z,1980
2017-06-09T05:05:26.186Z,1908
2017-06-09T05:06:06.737Z,1852
2017-06-09T05:06:47.318Z,1808
2017-06-09T05:07:27.876Z,1780
2017-06-09T05:08:08.417Z,1748
2017-06-09T05:08:48.969Z,1732
2017-06-09T05:09:29.503Z,1728
2017-06-09T05:10:10.043Z,1728
2017-06-09T05:10:50.592Z,1716
2017-06-09T05:11:31.142Z,1700
2017-06-09T05:12:11.691Z,1684
2017-06-09T05:12:52.243Z,1652
2017-06-09T05:13:32.792Z,1608
2017-06-09T05:14:13.344Z,1560
2017-06-09T05:14:53.896Z,1532
2017-06-09T05:15:34.478Z,1500
2017-06-09T05:16:15.027Z,1468
2017-06-09T05:16:55.562Z,1452
2017-06-09T05:17:36.115Z,1432
2017-06-09T05:18:16.664Z,1396
2017-06-09T05:18:57.212Z,1356
2017-06-09T05:19:37.761Z,1324
2017-06-09T05:20:18.303Z,1308
2017-06-09T05:20:58.852Z,1304
2017-06-09T05:21:39.402Z,1292
2017-06-09T05:22:19.957Z,1280
2017-06-09T05:23:00.498Z,1268
2017-06-09T05:23:41.046Z,1264
2017-06-09T05:24:21.597Z,1264
2017-06-09T05:25:02.154Z,1280
2017-06-09T05:25:42.709Z,1304
2017-06-09T05:26:23.251Z,1336
2017-06-09T05:27:03.808Z,1388
2017-06-09T05:27:44.366Z,1456
2017-06-09T05:28:24.918Z,1536
2017-06-09T05:29:05.467Z,1632
2017-06-09T05:29:46.013Z,1720
2017-06-09T05:30:26.564Z,1788
2017-06-09T05:31:07.116Z,1844
2017-06-09T05:31:47.666Z,1904
2017-06-09T05:32:28.219Z,1948
2017-06-09T05:33:08.763Z,2016
2017-06-09T05:33:49.323Z,2084
2017-06-09T05:34:29.870Z,2168
2017-06-09T05:35:10.415Z,2300
2017-06-09T05:35:50.970Z,2508
2017-06-09T05:36:31.520Z,2748
2017-06-09T05:37:12.071Z,3004
2017-06-09T05:37:52.617Z,3248
2017-06-09T05:38:33.170Z,3468
2017-06-09T05:39:13.720Z,3652
2017-06-09T05:39:54.266Z,3740
2017-06-09T05:40:34.839Z,3900
2017-06-09T05:41:15.379Z,3840
2017-06-09T05:41:55.922Z,3824
2017-06-09T05:42:36.476Z,3872
2017-06-09T05:43:17.023Z,3968
2017-06-09T05:43:57.578Z,3940
2017-06-09T05:44:38.130Z,3956
2017-06-09T05:45:18.781Z,4036
2017-06-09T05:45:59.631Z,4168
2017-06-09T05:46:40.198Z,4240
2017-06-09T05:47:20.739Z,4312
2017-06-09T05:48:01.294Z,4340
2017-06-09T05:48:41.840Z,4300
2017-06-09T05:49:22.392Z,4292
2017-06-09T05:50:02.940Z,4348
2017-06-09T05:50:43.490Z,4352
2017-06-09T05:51:24.046Z,4360
2017-06-09T05:52:04.606Z,4228
2017-06-09T05:52:45.142Z,4056
2017-06-09T05:53:25.687Z,4028
2017-06-09T05:54:06.235Z,4164
2017-06-09T05:54:46.776Z,4248
2017-06-09T05:55:27.328Z,4360
2017-06-09T05:56:07.870Z,4360
2017-06-09T05:56:48.434Z,4244
2017-06-09T05:57:28.986Z,4240
2017-06-09T05:58:09.557Z,4276
2017-06-09T05:58:50.105Z,4316
2017-06-09T05:59:30.654Z,4368
2017-06-09T06:00:11.203Z,4428
2017-06-09T06:00:51.755Z,4484
2017-06-09T06:01:32.308Z,4496
2017-06-09T06:02:12.855Z,4456
2017-06-09T06:02:53.409Z,4416
2017-06-09T06:03:33.959Z,4420
2017-06-09T06:04:14.513Z,4440
2017-06-09T06:04:55.062Z,4404
2017-06-09T06:05:35.614Z,4296
2017-06-09T06:06:16.165Z,4148
2017-06-09T06:06:56.734Z,3960
2017-06-09T06:07:37.284Z,3808
2017-06-09T06:08:17.826Z,3736
2017-06-09T06:08:58.370Z,3720
2017-06-09T06:09:38.909Z,3744
2017-06-09T06:10:19.458Z,3792
2017-06-09T06:11:00.016Z,3848
2017-06-09T06:11:40.568Z,3892
2017-06-09T06:12:21.120Z,3920
2017-06-09T06:13:01.670Z,3952
2017-06-09T06:13:42.255Z,4064
2017-06-09T06:14:22.897Z,4152
2017-06-09T06:15:03.460Z,4244
2017-06-09T06:15:44.021Z,4332
2017-06-09T06:16:24.573Z,4404
2017-06-09T06:17:05.121Z,4464
2017-06-09T06:17:45.666Z,4488
2017-06-09T06:18:26.213Z,4500
2017-06-09T06:19:06.760Z,4544
2017-06-09T06:19:47.314Z,4600
2017-06-09T06:20:27.856Z,4676
2017-06-09T06:21:08.444Z,4764
2017-06-09T06:21:48.987Z,4780
2017-06-09T06:22:29.543Z,4792
2017-06-09T06:23:10.094Z,4824
2017-06-09T06:23:50.647Z,4788
2017-06-09T06:24:31.193Z,4824
2017-06-09T06:25:11.773Z,4864
2017-06-09T06:25:52.304Z,4808
2017-06-09T06:26:32.834Z,4772
2017-06-09T06:27:13.374Z,4732
2017-06-09T06:27:53.918Z,4664
2017-06-09T06:28:34.466Z,4576
2017-06-09T06:29:15.005Z,4596
2017-06-09T06:29:55.618Z,4648
2017-06-09T06:30:36.230Z,4716
2017-06-09T06:31:16.776Z,4828
2017-06-09T06:31:57.320Z,4980
2017-06-09T06:32:37.866Z,5172
2017-06-09T06:33:18.416Z,5404
2017-06-09T06:33:58.960Z,5644
2017-06-09T06:34:39.591Z,5836
2017-06-09T06:35:20.137Z,5988
2017-06-09T06:36:00.673Z,6092
2017-06-09T06:36:41.296Z,6120
2017-06-09T06:37:21.837Z,6076
2017-06-09T06:38:02.387Z,5948
2017-06-09T06:38:42.929Z,5808
2017-06-09T06:39:23.461Z,5592
2017-06-09T06:40:04.014Z,5336
2017-06-09T06:40:44.576Z,5068
2017-06-09T06:41:25.124Z,4832
2017-06-09T06:42:05.658Z,4628
2017-06-09T06:42:46.202Z,4460
2017-06-09T06:43:26.753Z,4336
2017-06-09T06:44:07.308Z,4232
2017-06-09T06:44:47.851Z,4204
2017-06-09T06:45:28.402Z,4204
2017-06-09T06:46:08.955Z,4132
2017-06-09T06:46:49.499Z,4044
2017-06-09T06:47:30.046Z,3920
2017-06-09T06:48:10.627Z,3816
2017-06-09T06:48:51.173Z,3680
2017-06-09T06:49:31.736Z,3576
2017-06-09T06:50:12.282Z,3516
2017-06-09T06:50:52.833Z,3464
2017-06-09T06:51:33.407Z,3472
2017-06-09T06:52:13.954Z,3436
2017-06-09T06:52:54.501Z,3332
2017-06-09T06:53:35.044Z,3228
2017-06-09T06:54:15.587Z,3152
2017-06-09T06:54:56.161Z,3060
2017-06-09T06:55:36.716Z,3024
2017-06-09T06:56:17.256Z,3048
2017-06-09T06:56:57.800Z,2972
2017-06-09T06:57:38.342Z,2856
2017-06-09T06:58:18.898Z,2780
2017-06-09T06:58:59.436Z,2796
2017-06-09T06:59:39.995Z,2844
2017-06-09T07:00:20.541Z,2804
2017-06-09T07:01:01.084Z,2868
2017-06-09T07:01:41.641Z,2892
2017-06-09T07:02:22.179Z,2816
2017-06-09T07:03:02.727Z,2816
2017-06-09T07:03:43.272Z,2864
2017-06-09T07:04:23.821Z,2928
2017-06-09T07:05:04.363Z,2952
2017-06-09T07:05:44.906Z,2932
2017-06-09T07:06:25.456Z,3052
2017-06-09T07:07:05.991Z,3096
2017-06-09T07:07:46.534Z,3136
2017-06-09T07:08:27.090Z,3196
2017-06-09T07:09:07.628Z,3316
2017-06-09T07:09:48.211Z,3424
2017-06-09T07:10:28.758Z,3484
2017-06-09T07:11:09.296Z,3552
2017-06-09T07:11:49.850Z,3676
2017-06-09T07:12:30.399Z,3760
2017-06-09T07:13:10.940Z,3780
2017-06-09T07:13:51.487Z,3784
2017-06-09T07:14:32.028Z,3796
2017-06-09T07:15:12.569Z,3832
2017-06-09T07:15:53.116Z,3904
2017-06-09T07:16:33.663Z,3960
2017-06-09T07:17:14.208Z,4024
2017-06-09T07:17:54.761Z,4124
2017-06-09T07:18:35.303Z,4188
2017-06-09T07:19:15.855Z,4232
2017-06-09T07:19:56.405Z,4312
2017-06-09T07:20:36.940Z,4420
2017-06-09T07:21:21.582Z,4556
2017-06-09T07:22:02.125Z,4600
2017-06-09T07:22:42.668Z,4560
2017-06-09T07:23:23.214Z,4524
2017-06-09T07:24:03.797Z,4492
2017-06-09T07:24:44.344Z,4460
2017-06-09T07:25:24.891Z,4440
2017-06-09T07:26:05.432Z,4428
2017-06-09T07:26:45.982Z,4384
2017-06-09T07:27:26.527Z,4332
2017-06-09T07:28:07.063Z,4276
2017-06-09T07:28:47.612Z,4284
2017-06-09T07:29:28.157Z,4328
2017-06-09T07:30:08.696Z,4340
2017-06-09T07:30:49.237Z,4316
2017-06-09T07:31:29.764Z,4340
2017-06-09T07:32:10.308Z,4396
2017-06-09T07:32:50.842Z,4432
2017-06-09T07:33:31.388Z,4480
2017-06-09T07:34:11.927Z,4480
2017-06-09T07:34:52.477Z,4428
2017-06-09T07:35:33.020Z,4348
2017-06-09T07:36:13.552Z,4276
2017-06-09T07:36:54.088Z,4196
2017-06-09T07:37:34.639Z,4144
2017-06-09T07:38:15.182Z,4172
2017-06-09T07:38:55.728Z,4192
2017-06-09T07:39:36.272Z,4188
2017-06-09T07:40:16.805Z,4300
2017-06-09T07:40:57.346Z,4588
2017-06-09T07:41:37.881Z,4824
2017-06-09T07:42:18.429Z,5012
2017-06-09T07:42:58.955Z,5144
2017-06-09T07:43:39.502Z,5384
2017-06-09T07:44:20.046Z,5628
2017-06-09T07:45:00.591Z,5848
2017-06-09T07:45:41.142Z,6020
2017-06-09T07:46:21.688Z,6304
2017-06-09T07:47:02.238Z,6648
2017-06-09T07:47:42.788Z,6908
2017-06-09T07:48:23.332Z,7088
2017-06-09T07:49:03.870Z,7196
2017-06-09T07:49:44.424Z,7320
2017-06-09T07:50:24.955Z,7548
2017-06-09T07:51:05.509Z,7772
2017-06-09T07:51:46.034Z,8004
2017-06-09T07:52:26.591Z,8136
2017-06-09T07:53:07.123Z,8132
2017-06-09T07:53:47.669Z,8136
2017-06-09T07:54:28.203Z,8144
2017-06-09T07:55:08.752Z,8084
2017-06-09T07:55:49.295Z,7952
2017-06-09T07:56:29.839Z,7892
2017-06-09T07:57:10.377Z,7908
2017-06-09T07:57:50.929Z,7836
2017-06-09T07:58:31.470Z,7600
2017-06-09T07:59:12.015Z,7628
2017-06-09T07:59:52.562Z,7796
2017-06-09T08:00:33.106Z,7676
2017-06-09T08:01:13.646Z,7504
2017-06-09T08:01:54.195Z,7336
2017-06-09T08:02:34.742Z,7056
2017-06-09T08:03:15.276Z,6852
2017-06-09T08:03:55.820Z,6704
2017-06-09T08:04:36.365Z,6492
2017-06-09T08:05:16.907Z,6184
2017-06-09T08:05:57.445Z,5860
2017-06-09T08:06:37.986Z,5608
2017-06-09T08:07:18.534Z,5492
2017-06-09T08:07:59.073Z,5660
2017-06-09T08:08:39.619Z,5972
2017-06-09T08:09:20.177Z,6280
2017-06-09T08:10:00.697Z,6484
2017-06-09T08:10:41.244Z,6380
2017-06-09T08:11:21.788Z,6180
2017-06-09T08:12:02.331Z,6028
2017-06-09T08:12:42.873Z,5832
2017-06-09T08:13:23.408Z,5756
2017-06-09T08:14:03.946Z,5628
2017-06-09T08:14:44.487Z,5436
2017-06-09T08:15:25.025Z,5212
2017-06-09T08:16:05.570Z,5128
2017-06-09T08:16:46.111Z,5096
2017-06-09T08:17:26.641Z,5224
2017-06-09T08:18:07.187Z,5424
2017-06-09T08:18:47.734Z,5572
2017-06-09T08:19:28.278Z,4952
2017-06-09T08:20:08.824Z,3752
2017-06-09T08:20:49.365Z,2916
2017-06-09T08:21:29.921Z,2628
2017-06-09T08:22:10.463Z,2608
2017-06-09T08:22:51.016Z,2632
2017-06-09T08:23:31.563Z,2620
2017-06-09T08:24:12.108Z,2480
2017-06-09T08:24:52.645Z,2212
2017-06-09T08:25:33.198Z,1936
2017-06-09T08:26:13.739Z,1728
2017-06-09T08:26:54.289Z,1652
2017-06-09T08:27:34.835Z,1704
2017-06-09T08:28:15.376Z,1844
2017-06-09T08:28:55.907Z,1956
2017-06-09T08:29:36.455Z,1972
2017-06-09T08:30:17.000Z,1816
2017-06-09T08:30:57.550Z,1520
2017-06-09T08:31:38.110Z,1224
2017-06-09T08:32:18.652Z,968
2017-06-09T08:32:59.193Z,788
2017-06-09T08:33:39.747Z,708
2017-06-09T08:34:20.290Z,704
2017-06-09T08:35:00.837Z,764
2017-06-09T08:35:41.397Z,900
2017-06-09T08:36:21.945Z,1088
2017-06-09T08:37:02.495Z,1232
2017-06-09T08:37:43.042Z,1340
2017-06-09T08:38:23.590Z,1340
2017-06-09T08:39:04.137Z,1304
2017-06-09T08:39:44.675Z,1312
2017-06-09T08:40:25.222Z,1404
2017-06-09T08:41:05.762Z,1576
2017-06-09T08:41:46.300Z,1808
2017-06-09T08:42:26.852Z,2084
2017-06-09T08:43:07.392Z,2420
2017-06-09T08:43:47.937Z,2828
2017-06-09T08:44:28.466Z,3252
2017-06-09T08:45:09.014Z,3276
2017-06-09T08:45:49.563Z,3732
2017-06-09T08:46:30.112Z,4884
2017-06-09T08:47:10.660Z,5240
2017-06-09T08:47:51.201Z,4424
2017-06-09T08:48:31.757Z,3132
2017-06-09T08:49:12.298Z,2416
2017-06-09T08:49:52.844Z,2124
2017-06-09T08:50:33.376Z,1836
2017-06-09T08:51:13.924Z,1796
2017-06-09T08:51:54.481Z,2172
2017-06-09T08:52:35.003Z,2412
2017-06-09T08:53:15.554Z,2716
2017-06-09T08:53:56.089Z,3236
2017-06-09T08:54:36.636Z,3724
2017-06-09T08:55:17.177Z,4336
2017-06-09T08:55:57.719Z,4912
2017-06-09T08:56:38.274Z,4428
2017-06-09T08:57:18.819Z,3196
2017-06-09T08:57:59.366Z,2556
2017-06-09T08:58:39.918Z,2452
2017-06-09T08:59:20.440Z,2732
2017-06-09T09:00:01.002Z,3260
2017-06-09T09:00:41.528Z,3948
2017-06-09T09:01:22.063Z,4260
2017-06-09T09:02:02.601Z,3456
2017-06-09T09:02:43.138Z,2756
2017-06-09T09:03:23.685Z,2696
2017-06-09T09:04:04.229Z,2784
2017-06-09T09:04:44.778Z,2832
2017-06-09T09:05:25.331Z,2800
2017-06-09T09:06:05.878Z,2832
2017-06-09T09:06:46.427Z,3008
2017-06-09T09:07:26.978Z,3548
2017-06-09T09:08:07.524Z,4028
2017-06-09T09:08:48.068Z,4344
2017-06-09T09:09:28.599Z,4368
2017-06-09T09:10:09.149Z,4200
2017-06-09T09:10:49.675Z,4092
2017-06-09T09:11:30.209Z,4120
2017-06-09T09:12:10.753Z,4108
2017-06-09T09:12:51.291Z,4116
2017-06-09T09:13:31.831Z,4212
2017-06-09T09:14:12.393Z,4212
2017-06-09T09:14:52.910Z,4080
2017-06-09T09:15:33.460Z,3860
2017-06-09T09:16:13.990Z,3588
2017-06-09T09:16:54.526Z,3388
2017-06-09T09:17:35.065Z,3272
2017-06-09T09:18:15.590Z,3188
2017-06-09T09:18:56.134Z,3136
2017-06-09T09:19:36.680Z,3164
2017-06-09T09:20:17.224Z,3364
2017-06-09T09:20:57.767Z,3588
2017-06-09T09:21:38.296Z,3576